Manhattan — WDH4861 — position and weather

sailwx.info

Track history (hours):
 
Tides and Currents Weather Stations Pressure Air Temp Water Temp Dewpoint Dewpoint Depression Visibility Wind Speed Wind Dir Waves Ship Positions

Manhattan

Owner: NY WaterTours, New York, NY. More information available from US FCC via Universal Licensing System and Coast Guard Vessel Documentation Center.

Last reported at 2017-Oct-19 15:00 UTC. Time now 2017-Oct-19 15:07 UTC.
Position N 40°41' W 074°01'.

Type: Ship. MMSI: 367622140.

Date/timePositionNaut miles runAvg speedWind from/ knotsBaromVisibWave heightAir tempDewpointWater temp
2017-Oct-19 15:00N 40°41' W 074°01'0 0.0
2017-Oct-18 22:23N 40°41' W 074°01'2 4.2
2017-Oct-18 21:53N 40°43' W 073°59'0 0.0
2017-Oct-18 21:25N 40°43' W 073°59'0 0.0
2017-Oct-18 20:54N 40°43' W 073°59'0 0.0
2017-Oct-18 20:28N 40°43' W 073°59'3 6.1
2017-Oct-18 20:00N 40°41' W 074°02'3 5.0
2017-Oct-18 19:28N 40°43' W 073°59'0 0.4
2017-Oct-18 19:00N 40°42' W 073°59'2 4.3
2017-Oct-18 18:30N 40°42' W 074°02'2 4.3
2017-Oct-18 17:57N 40°43' W 073°59'0 0.1
2017-Oct-18 17:30N 40°43' W 073°59'2 4.7
2017-Oct-18 17:00N 40°42' W 074°02'2 4.4
2017-Oct-18 16:29N 40°43' W 073°59'2 3.9
2017-Oct-18 15:58N 40°41' W 074°01'0 0.0
2017-Oct-17 21:14N 40°41' W 074°01'1 3.2
2017-Oct-17 21:00N 40°42' W 074°00'1 2.8
2017-Oct-17 20:30N 40°43' W 073°59'2 4.8
2017-Oct-17 20:01N 40°42' W 074°02'2 3.7
2017-Oct-17 19:23N 40°43' W 073°59'1 3.0
2017-Oct-17 19:00N 40°42' W 074°00'1 1.2
2017-Oct-17 18:30N 40°42' W 074°01'2 2.9
2017-Oct-17 17:57N 40°43' W 073°59'3 6.7
2017-Oct-17 17:30N 40°41' W 074°03'3 5.7
2017-Oct-17 16:59N 40°43' W 073°59'2 3.5
2017-Oct-17 16:30N 40°42' W 074°01'1 2.2
2017-Oct-17 15:55N 40°43' W 074°02'1 1.2
2017-Oct-17 15:27N 40°42' W 074°02'2 3.5
2017-Oct-17 15:00N 40°41' W 074°02'1 0.0
2017-Oct-16 20:59N 40°41' W 074°01'2 3.5
2017-Oct-16 20:24N 40°43' W 073°59'3 7.6
2017-Oct-16 20:00N 40°41' W 074°03'3 5.5
2017-Oct-16 19:28N 40°43' W 073°59'0 0.0
2017-Oct-16 18:59N 40°43' W 073°59'3 5.9
2017-Oct-16 18:29N 40°41' W 074°03'3 4.5
2017-Oct-16 17:50N 40°43' W 073°59'0 0.1
2017-Oct-16 17:29N 40°43' W 073°59'3 5.9
2017-Oct-16 17:00N 40°41' W 074°02'3 4.6
2017-Oct-16 16:24N 40°43' W 073°59'0 0.0
2017-Oct-16 15:58N 40°43' W 073°59'2 4.2
2017-Oct-16 15:28N 40°41' W 074°01'0 0.0
2017-Oct-16 14:59N 40°41' W 074°01'0 0.0
2017-Oct-16 14:27N 40°41' W 074°01'0 0.0
2017-Oct-15 21:07N 40°41' W 074°01'0 2.0
2017-Oct-15 21:01N 40°41' W 074°01'2 3.7
2017-Oct-15 20:30N 40°43' W 073°59'3 5.9
2017-Oct-15 20:00N 40°41' W 074°03'3 5.3
2017-Oct-15 19:27N 40°43' W 073°59'0 0.0
2017-Oct-15 18:57N 40°43' W 073°59'3 5.9
2017-Oct-15 18:30N 40°41' W 074°02'3 5.2
2017-Oct-15 18:00N 40°43' W 073°59'0 0.1
2017-Oct-15 17:22N 40°43' W 073°59'3 7.5
2017-Oct-15 17:00N 40°41' W 074°02'3 5.0
2017-Oct-15 16:27N 40°43' W 073°59'0 0.0
2017-Oct-15 15:58N 40°43' W 073°59'3 5.0
2017-Oct-15 15:28N 40°43' W 074°02'0 0.0
2017-Oct-15 15:00N 40°43' W 074°02'2 0.1
2017-Oct-14 22:13N 40°41' W 074°01'1 4.5
2017-Oct-14 22:00N 40°42' W 074°00'1 2.0
2017-Oct-14 21:26N 40°43' W 073°59'3 6.3
2017-Oct-14 21:01N 40°42' W 074°02'3 4.2
2017-Oct-14 20:23N 40°43' W 073°59'3 7.7
2017-Oct-14 20:00N 40°41' W 074°03'3 5.7
2017-Oct-14 19:30N 40°43' W 073°59'0 0.0
2017-Oct-14 19:00N 40°43' W 073°59'3 5.7
2017-Oct-14 18:28N 40°41' W 074°03'3 5.9
2017-Oct-14 17:58N 40°43' W 073°59'0 0.0
2017-Oct-14 17:28N 40°43' W 073°59'3 6.4
2017-Oct-14 17:00N 40°41' W 074°03'3 4.8
2017-Oct-14 16:23N 40°43' W 073°59'0 0.5
2017-Oct-14 16:00N 40°42' W 073°59'2 4.2
2017-Oct-14 15:25N 40°43' W 074°03'2 0.1
2017-Oct-13 21:33N 40°41' W 074°01'0 0.0
2017-Oct-13 21:30N 40°41' W 074°01'2 4.2
2017-Oct-13 21:00N 40°43' W 073°59'0 0.1
2017-Oct-13 20:26N 40°43' W 073°59'3 7.0
2017-Oct-13 20:00N 40°41' W 074°03'3 6.0
2017-Oct-13 19:30N 40°43' W 073°59'0 0.0
2017-Oct-13 18:52N 40°43' W 073°59'2 6.6
2017-Oct-13 18:31N 40°42' W 074°02'2 4.3
2017-Oct-13 17:58N 40°43' W 073°59'1 3.1
2017-Oct-13 17:30N 40°42' W 074°01'1 3.0
2017-Oct-13 17:00N 40°42' W 073°59'0 0.2
2017-Oct-13 16:30N 40°42' W 073°59'3 4.6
2017-Oct-13 15:57N 40°43' W 074°02'0 0.0
2017-Oct-13 15:23N 40°43' W 074°02'0 0.7
2017-Oct-13 15:01N 40°43' W 074°02'2 0.1
2017-Oct-12 21:19N 40°41' W 074°01'2 5.9
2017-Oct-12 20:58N 40°43' W 073°59'1 1.1
2017-Oct-12 20:30N 40°42' W 073°60'2 3.4
2017-Oct-12 20:00N 40°42' W 074°02'2 4.2
2017-Oct-12 19:30N 40°43' W 073°59'0 0.3
2017-Oct-12 19:00N 40°42' W 073°59'2 4.9
2017-Oct-12 18:30N 40°42' W 074°02'2 4.7
2017-Oct-12 18:00N 40°43' W 073°59'1 2.6
2017-Oct-12 17:29N 40°42' W 074°01'1 1.6
2017-Oct-12 17:00N 40°42' W 074°01'2 2.8
2017-Oct-12 16:26N 40°43' W 073°59'2 4.6
2017-Oct-12 16:00N 40°41' W 074°01'0 0.0
2017-Oct-11 21:13N 40°41' W 074°01'1 4.4
2017-Oct-11 21:00N 40°42' W 074°00'1 1.8
2017-Oct-11 20:30N 40°42' W 073°59'2 4.0
2017-Oct-11 20:00N 40°42' W 074°02'2 4.4
2017-Oct-11 19:29N 40°43' W 073°59'1 1.7
2017-Oct-11 19:00N 40°42' W 074°00'1 2.3
2017-Oct-11 18:30N 40°43' W 074°01'2 2.9
2017-Oct-11 17:56N 40°43' W 073°59'0 0.0
2017-Oct-11 17:26N 40°43' W 073°59'3 5.9
2017-Oct-11 17:00N 40°42' W 074°02'1 0.1
2017-Oct-10 22:35N 40°41' W 074°01'0 0.1
2017-Oct-10 22:30N 40°41' W 074°01'2 3.6
2017-Oct-10 21:57N 40°43' W 073°59'3 5.9
2017-Oct-10 21:30N 40°41' W 074°02'1 1.9
2017-Oct-10 21:00N 40°42' W 074°01'2 3.3
2017-Oct-10 20:29N 40°43' W 073°59'3 5.7
2017-Oct-10 20:00N 40°41' W 074°02'3 5.1
2017-Oct-10 19:30N 40°42' W 073°59'0 0.4
2017-Oct-10 18:59N 40°43' W 073°59'3 5.5
2017-Oct-10 18:31N 40°41' W 074°02'2 4.5
2017-Oct-10 18:00N 40°42' W 073°60'0 0.7
2017-Oct-10 17:30N 40°43' W 073°59'2 4.2
2017-Oct-10 17:00N 40°42' W 074°02'2 3.2
2017-Oct-10 16:23N 40°43' W 073°59'2 4.8
2017-Oct-10 15:58N 40°41' W 074°01'0 0.0
2017-Oct-09 20:33N 40°41' W 074°01'0 0.3
2017-Oct-09 20:30N 40°41' W 074°01'2 3.4
2017-Oct-09 20:00N 40°42' W 073°60'0 0.9
2017-Oct-09 19:30N 40°42' W 074°00'1 1.5
2017-Oct-09 18:58N 40°43' W 073°59'3 6.6
2017-Oct-09 18:31N 40°41' W 074°03'3 5.3
2017-Oct-09 17:57N 40°43' W 073°59'0 0.0
2017-Oct-09 17:30N 40°43' W 073°59'2 4.5
2017-Oct-09 17:01N 40°42' W 074°02'2 4.4
2017-Oct-09 16:30N 40°43' W 073°59'0 0.1
2017-Oct-09 15:58N 40°43' W 073°59'0 0.1
2017-Oct-09 15:30N 40°43' W 073°59'  
Track history (hours):
 
Tides and Currents Weather Stations Pressure Air Temp Water Temp Dewpoint Dewpoint Depression Visibility Wind Speed Wind Dir Waves Ship Positions

Manhattan

Owner: NY WaterTours, New York, NY. More information available from US FCC via Universal Licensing System and Coast Guard Vessel Documentation Center.

Last reported at 2017-Oct-19 15:00 UTC. Time now 2017-Oct-19 15:07 UTC.
Position N 40°41' W 074°01'.

Type: Ship. MMSI: 367622140.

Date/timePositionNaut miles runAvg speedWind from/ knotsBaromVisibWave heightAir tempDewpointWater temp
2017-Oct-19 15:00N 40°41' W 074°01'0 0.0
2017-Oct-18 22:23N 40°41' W 074°01'2 4.2
2017-Oct-18 21:53N 40°43' W 073°59'0 0.0
2017-Oct-18 21:25N 40°43' W 073°59'0 0.0
2017-Oct-18 20:54N 40°43' W 073°59'0 0.0
2017-Oct-18 20:28N 40°43' W 073°59'3 6.1
2017-Oct-18 20:00N 40°41' W 074°02'3 5.0
2017-Oct-18 19:28N 40°43' W 073°59'0 0.4
2017-Oct-18 19:00N 40°42' W 073°59'2 4.3
2017-Oct-18 18:30N 40°42' W 074°02'2 4.3
2017-Oct-18 17:57N 40°43' W 073°59'0 0.1
2017-Oct-18 17:30N 40°43' W 073°59'2 4.7
2017-Oct-18 17:00N 40°42' W 074°02'2 4.4
2017-Oct-18 16:29N 40°43' W 073°59'2 3.9
2017-Oct-18 15:58N 40°41' W 074°01'0 0.0
2017-Oct-17 21:14N 40°41' W 074°01'1 3.2
2017-Oct-17 21:00N 40°42' W 074°00'1 2.8
2017-Oct-17 20:30N 40°43' W 073°59'2 4.8
2017-Oct-17 20:01N 40°42' W 074°02'2 3.7
2017-Oct-17 19:23N 40°43' W 073°59'1 3.0
2017-Oct-17 19:00N 40°42' W 074°00'1 1.2
2017-Oct-17 18:30N 40°42' W 074°01'2 2.9
2017-Oct-17 17:57N 40°43' W 073°59'3 6.7
2017-Oct-17 17:30N 40°41' W 074°03'3 5.7
2017-Oct-17 16:59N 40°43' W 073°59'2 3.5
2017-Oct-17 16:30N 40°42' W 074°01'1 2.2
2017-Oct-17 15:55N 40°43' W 074°02'1 1.2
2017-Oct-17 15:27N 40°42' W 074°02'2 3.5
2017-Oct-17 15:00N 40°41' W 074°02'1 0.0
2017-Oct-16 20:59N 40°41' W 074°01'2 3.5
2017-Oct-16 20:24N 40°43' W 073°59'3 7.6
2017-Oct-16 20:00N 40°41' W 074°03'3 5.5
2017-Oct-16 19:28N 40°43' W 073°59'0 0.0
2017-Oct-16 18:59N 40°43' W 073°59'3 5.9
2017-Oct-16 18:29N 40°41' W 074°03'3 4.5
2017-Oct-16 17:50N 40°43' W 073°59'0 0.1
2017-Oct-16 17:29N 40°43' W 073°59'3 5.9
2017-Oct-16 17:00N 40°41' W 074°02'3 4.6
2017-Oct-16 16:24N 40°43' W 073°59'0 0.0
2017-Oct-16 15:58N 40°43' W 073°59'2 4.2
2017-Oct-16 15:28N 40°41' W 074°01'0 0.0
2017-Oct-16 14:59N 40°41' W 074°01'0 0.0
2017-Oct-16 14:27N 40°41' W 074°01'0 0.0
2017-Oct-15 21:07N 40°41' W 074°01'0 2.0
2017-Oct-15 21:01N 40°41' W 074°01'2 3.7
2017-Oct-15 20:30N 40°43' W 073°59'3 5.9
2017-Oct-15 20:00N 40°41' W 074°03'3 5.3
2017-Oct-15 19:27N 40°43' W 073°59'0 0.0
2017-Oct-15 18:57N 40°43' W 073°59'3 5.9
2017-Oct-15 18:30N 40°41' W 074°02'3 5.2
2017-Oct-15 18:00N 40°43' W 073°59'0 0.1
2017-Oct-15 17:22N 40°43' W 073°59'3 7.5
2017-Oct-15 17:00N 40°41' W 074°02'3 5.0
2017-Oct-15 16:27N 40°43' W 073°59'0 0.0
2017-Oct-15 15:58N 40°43' W 073°59'3 5.0
2017-Oct-15 15:28N 40°43' W 074°02'0 0.0
2017-Oct-15 15:00N 40°43' W 074°02'2 0.1
2017-Oct-14 22:13N 40°41' W 074°01'1 4.5
2017-Oct-14 22:00N 40°42' W 074°00'1 2.0
2017-Oct-14 21:26N 40°43' W 073°59'3 6.3
2017-Oct-14 21:01N 40°42' W 074°02'3 4.2
2017-Oct-14 20:23N 40°43' W 073°59'3 7.7
2017-Oct-14 20:00N 40°41' W 074°03'3 5.7
2017-Oct-14 19:30N 40°43' W 073°59'0 0.0
2017-Oct-14 19:00N 40°43' W 073°59'3 5.7
2017-Oct-14 18:28N 40°41' W 074°03'3 5.9
2017-Oct-14 17:58N 40°43' W 073°59'0 0.0
2017-Oct-14 17:28N 40°43' W 073°59'3 6.4
2017-Oct-14 17:00N 40°41' W 074°03'3 4.8
2017-Oct-14 16:23N 40°43' W 073°59'0 0.5
2017-Oct-14 16:00N 40°42' W 073°59'2 4.2
2017-Oct-14 15:25N 40°43' W 074°03'2 0.1
2017-Oct-13 21:33N 40°41' W 074°01'0 0.0
2017-Oct-13 21:30N 40°41' W 074°01'2 4.2
2017-Oct-13 21:00N 40°43' W 073°59'0 0.1
2017-Oct-13 20:26N 40°43' W 073°59'3 7.0
2017-Oct-13 20:00N 40°41' W 074°03'3 6.0
2017-Oct-13 19:30N 40°43' W 073°59'0 0.0
2017-Oct-13 18:52N 40°43' W 073°59'2 6.6
2017-Oct-13 18:31N 40°42' W 074°02'2 4.3
2017-Oct-13 17:58N 40°43' W 073°59'1 3.1
2017-Oct-13 17:30N 40°42' W 074°01'1 3.0
2017-Oct-13 17:00N 40°42' W 073°59'0 0.2
2017-Oct-13 16:30N 40°42' W 073°59'3 4.6
2017-Oct-13 15:57N 40°43' W 074°02'0 0.0
2017-Oct-13 15:23N 40°43' W 074°02'0 0.7
2017-Oct-13 15:01N 40°43' W 074°02'2 0.1
2017-Oct-12 21:19N 40°41' W 074°01'2 5.9
2017-Oct-12 20:58N 40°43' W 073°59'1 1.1
2017-Oct-12 20:30N 40°42' W 073°60'2 3.4
2017-Oct-12 20:00N 40°42' W 074°02'2 4.2
2017-Oct-12 19:30N 40°43' W 073°59'0 0.3
2017-Oct-12 19:00N 40°42' W 073°59'2 4.9
2017-Oct-12 18:30N 40°42' W 074°02'2 4.7
2017-Oct-12 18:00N 40°43' W 073°59'1 2.6
2017-Oct-12 17:29N 40°42' W 074°01'1 1.6
2017-Oct-12 17:00N 40°42' W 074°01'2 2.8
2017-Oct-12 16:26N 40°43' W 073°59'2 4.6
2017-Oct-12 16:00N 40°41' W 074°01'0 0.0
2017-Oct-11 21:13N 40°41' W 074°01'1 4.4
2017-Oct-11 21:00N 40°42' W 074°00'1 1.8
2017-Oct-11 20:30N 40°42' W 073°59'2 4.0
2017-Oct-11 20:00N 40°42' W 074°02'2 4.4
2017-Oct-11 19:29N 40°43' W 073°59'1 1.7
2017-Oct-11 19:00N 40°42' W 074°00'1 2.3
2017-Oct-11 18:30N 40°43' W 074°01'2 2.9
2017-Oct-11 17:56N 40°43' W 073°59'0 0.0
2017-Oct-11 17:26N 40°43' W 073°59'3 5.9
2017-Oct-11 17:00N 40°42' W 074°02'1 0.1
2017-Oct-10 22:35N 40°41' W 074°01'0 0.1
2017-Oct-10 22:30N 40°41' W 074°01'2 3.6
2017-Oct-10 21:57N 40°43' W 073°59'3 5.9
2017-Oct-10 21:30N 40°41' W 074°02'1 1.9
2017-Oct-10 21:00N 40°42' W 074°01'2 3.3
2017-Oct-10 20:29N 40°43' W 073°59'3 5.7
2017-Oct-10 20:00N 40°41' W 074°02'3 5.1
2017-Oct-10 19:30N 40°42' W 073°59'0 0.4
2017-Oct-10 18:59N 40°43' W 073°59'3 5.5
2017-Oct-10 18:31N 40°41' W 074°02'2 4.5
2017-Oct-10 18:00N 40°42' W 073°60'0 0.7
2017-Oct-10 17:30N 40°43' W 073°59'2 4.2
2017-Oct-10 17:00N 40°42' W 074°02'2 3.2
2017-Oct-10 16:23N 40°43' W 073°59'2 4.8
2017-Oct-10 15:58N 40°41' W 074°01'0 0.0
2017-Oct-09 20:33N 40°41' W 074°01'0 0.3
2017-Oct-09 20:30N 40°41' W 074°01'2 3.4
2017-Oct-09 20:00N 40°42' W 073°60'0 0.9
2017-Oct-09 19:30N 40°42' W 074°00'1 1.5
2017-Oct-09 18:58N 40°43' W 073°59'3 6.6
2017-Oct-09 18:31N 40°41' W 074°03'3 5.3
2017-Oct-09 17:57N 40°43' W 073°59'0 0.0
2017-Oct-09 17:30N 40°43' W 073°59'2 4.5
2017-Oct-09 17:01N 40°42' W 074°02'2 4.4
2017-Oct-09 16:30N 40°43' W 073°59'0 0.1
2017-Oct-09 15:58N 40°43' W 073°59'0 0.1
2017-Oct-09 15:30N 40°43' W 073°59'  

Dump ship's entire track history